createdAt,value
2023-01-07T00:01:59.396Z,989.5
2023-01-07T00:04:01.326Z,989.6
2023-01-07T00:06:03.052Z,989.5
2023-01-07T00:08:04.600Z,989.6
2023-01-07T00:10:06.012Z,989.5
2023-01-07T00:12:07.470Z,989.6
2023-01-07T00:14:09.321Z,989.6
2023-01-07T00:16:11.160Z,989.5
2023-01-07T00:18:12.320Z,989.5
2023-01-07T00:22:15.842Z,989.6
2023-01-07T00:24:18.340Z,989.6
2023-01-07T00:26:18.616Z,989.5
2023-01-07T00:28:19.734Z,989.5
2023-01-07T00:30:20.695Z,989.4
2023-01-07T00:32:21.783Z,989.5
2023-01-07T00:34:23.109Z,989.4
2023-01-07T00:36:24.318Z,989.4
2023-01-07T00:38:26.196Z,989.3
2023-01-07T00:40:27.993Z,989.3
2023-01-07T00:42:29.825Z,989.3
2023-01-07T00:44:30.876Z,989.3
2023-01-07T00:46:32.032Z,989.1
2023-01-07T00:48:33.088Z,989.2
2023-01-07T00:50:34.602Z,989.2
2023-01-07T00:52:35.690Z,989.2
2023-01-07T00:54:37.302Z,989.2
2023-01-07T00:58:40.249Z,989.1
2023-01-07T01:00:42.107Z,989.1
2023-01-07T01:02:43.923Z,989.1
2023-01-07T01:04:45.550Z,989.1
2023-01-07T01:06:46.924Z,989.1
2023-01-07T01:08:48.369Z,989.1
2023-01-07T01:10:49.704Z,989.1
2023-01-07T01:12:51.240Z,989.1
2023-01-07T01:14:52.871Z,989
2023-01-07T01:16:53.932Z,989.1
2023-01-07T01:18:55.131Z,989.1
2023-01-07T01:20:56.962Z,989
2023-01-07T01:22:58.410Z,989.1
2023-01-07T01:24:59.976Z,989.1
2023-01-07T01:27:01.231Z,989.2
2023-01-07T01:29:02.259Z,989.2
2023-01-07T01:31:03.753Z,989.2
2023-01-07T01:33:05.553Z,989.2
2023-01-07T01:35:07.388Z,989.2
2023-01-07T01:37:09.133Z,989.2
2023-01-07T01:41:11.197Z,989.2
2023-01-07T01:43:12.512Z,989.2
2023-01-07T01:47:15.150Z,989.1
2023-01-07T01:49:16.513Z,989.1
2023-01-07T01:51:18.335Z,989
2023-01-07T01:53:20.180Z,989.1
2023-01-07T01:55:21.570Z,989
2023-01-07T01:57:22.913Z,988.9
2023-01-07T01:59:24.182Z,988.9
2023-01-07T02:01:25.335Z,989
2023-01-07T02:03:26.466Z,989
2023-01-07T02:05:28.086Z,988.9
2023-01-07T02:07:29.214Z,989
2023-01-07T02:09:30.678Z,989
2023-01-07T02:11:32.429Z,989
2023-01-07T02:13:33.864Z,989
2023-01-07T02:15:35.510Z,989
2023-01-07T02:17:37.122Z,988.9
2023-01-07T02:19:38.138Z,989
2023-01-07T02:21:39.964Z,988.9
2023-01-07T02:23:41.814Z,988.9
2023-01-07T02:25:43.316Z,988.8
2023-01-07T02:27:44.896Z,988.8
2023-01-07T02:29:46.043Z,988.9
2023-01-07T02:31:47.317Z,988.8
2023-01-07T02:33:49.204Z,988.7
2023-01-07T02:35:50.633Z,988.7
2023-01-07T02:37:51.669Z,988.7
2023-01-07T02:39:53.552Z,988.7
2023-01-07T02:41:55.144Z,988.6
2023-01-07T02:45:58.869Z,988.6
2023-01-07T02:48:00.252Z,988.5
2023-01-07T02:50:01.803Z,988.5
2023-01-07T02:52:02.837Z,988.6
2023-01-07T02:54:03.844Z,988.5
2023-01-07T02:56:05.136Z,988.4
2023-01-07T02:58:06.168Z,988.5
2023-01-07T03:00:08.061Z,988.4
2023-01-07T03:02:09.483Z,988.3
2023-01-07T03:04:11.048Z,988.4
2023-01-07T03:06:12.506Z,988.3
2023-01-07T03:08:14.226Z,988.3
2023-01-07T03:10:15.892Z,988.3
2023-01-07T03:12:16.990Z,988.3
2023-01-07T03:14:17.998Z,988.3
2023-01-07T03:16:19.405Z,988.3
2023-01-07T03:18:20.792Z,988.3
2023-01-07T03:20:22.047Z,988.2
2023-01-07T03:22:23.444Z,988.1
2023-01-07T03:24:24.954Z,988.2
2023-01-07T03:26:26.066Z,988.2
2023-01-07T03:28:27.692Z,988.2
2023-01-07T03:30:29.328Z,988.1
2023-01-07T03:32:31.092Z,988.1
2023-01-07T03:34:32.086Z,988
2023-01-07T03:36:33.184Z,988
2023-01-07T03:38:34.556Z,988
2023-01-07T03:40:36.173Z,988
2023-01-07T03:42:37.129Z,987.9
2023-01-07T03:44:39.058Z,988
2023-01-07T03:46:40.709Z,988
2023-01-07T03:48:42.048Z,988
2023-01-07T03:50:43.342Z,987.9
2023-01-07T03:54:46.098Z,987.9
2023-01-07T03:56:47.659Z,987.8
2023-01-07T03:58:49.256Z,987.9
2023-01-07T04:00:50.626Z,987.8
2023-01-07T04:04:53.325Z,987.8
2023-01-07T04:06:54.563Z,987.8
2023-01-07T04:08:56.298Z,987.8
2023-01-07T04:10:58.063Z,987.8
2023-01-07T04:12:59.278Z,987.6
2023-01-07T04:15:00.788Z,987.7
2023-01-07T04:17:02.665Z,987.6
2023-01-07T04:19:04.402Z,987.6
2023-01-07T04:21:06.154Z,987.5
2023-01-07T04:23:07.795Z,987.7
2023-01-07T04:25:09.497Z,987.6
2023-01-07T04:27:11.100Z,987.5
2023-01-07T04:29:12.264Z,987.6
2023-01-07T04:31:13.669Z,987.6
2023-01-07T04:33:14.643Z,987.6
2023-01-07T04:35:15.822Z,987.5
2023-01-07T04:37:17.693Z,987.4
2023-01-07T04:39:19.134Z,987.4
2023-01-07T04:41:20.224Z,987.4
2023-01-07T04:43:21.615Z,987.4
2023-01-07T04:45:22.961Z,987.4
2023-01-07T04:47:24.070Z,987.5
2023-01-07T04:49:25.747Z,987.4
2023-01-07T04:53:29.339Z,987.4
2023-01-07T04:55:31.240Z,987.4
2023-01-07T04:57:32.253Z,987.3
2023-01-07T04:59:34.671Z,987.3
2023-01-07T05:01:35.083Z,987.3
2023-01-07T05:03:36.031Z,987.2
2023-01-07T05:05:37.759Z,987.3
2023-01-07T05:07:39.406Z,987.2
2023-01-07T05:09:40.857Z,987.3
2023-01-07T05:11:42.192Z,987.2
2023-01-07T05:13:43.443Z,987.1
2023-01-07T05:15:45.261Z,987.1
2023-01-07T05:19:48.400Z,987.1
2023-01-07T05:21:49.708Z,987.1
2023-01-07T05:23:51.424Z,987
2023-01-07T05:25:52.934Z,987
2023-01-07T05:27:54.852Z,987.1
2023-01-07T05:29:56.466Z,986.9
2023-01-07T05:31:57.395Z,987
2023-01-07T05:33:59.021Z,986.9
2023-01-07T05:36:00.473Z,987
2023-01-07T05:38:01.876Z,986.8
2023-01-07T05:40:03.273Z,986.8
2023-01-07T05:42:04.337Z,986.8
2023-01-07T05:44:06.112Z,986.9
2023-01-07T05:46:07.146Z,986.8
2023-01-07T05:48:08.171Z,986.8
2023-01-07T05:50:10.000Z,986.8
2023-01-07T05:52:11.886Z,986.8
2023-01-07T05:54:12.857Z,986.9
2023-01-07T05:56:14.093Z,986.7
2023-01-07T05:58:15.476Z,986.8
2023-01-07T06:00:16.853Z,986.8
2023-01-07T06:02:17.905Z,986.8
2023-01-07T06:04:19.079Z,986.7
2023-01-07T06:07:04.428Z,986.7
2023-01-07T06:09:05.532Z,986.7
2023-01-07T06:11:07.321Z,986.7
2023-01-07T06:13:08.718Z,986.7
2023-01-07T06:15:10.432Z,986.7
2023-01-07T06:19:12.662Z,986.6
2023-01-07T06:21:14.498Z,986.6
2023-01-07T06:23:15.873Z,986.6
2023-01-07T06:25:16.831Z,986.6
2023-01-07T06:27:18.282Z,986.6
2023-01-07T06:29:19.916Z,986.6
2023-01-07T06:31:21.751Z,986.6
2023-01-07T06:33:23.147Z,986.5
2023-01-07T06:35:24.870Z,986.5
2023-01-07T06:37:26.765Z,986.4
2023-01-07T06:39:28.681Z,986.4
2023-01-07T06:41:29.940Z,986.5
2023-01-07T06:43:31.739Z,986.5
2023-01-07T06:45:33.501Z,986.4
2023-01-07T06:47:34.520Z,986.3
2023-01-07T06:49:35.741Z,986.3
2023-01-07T06:51:37.247Z,986.3
2023-01-07T06:53:38.816Z,986.4
2023-01-07T06:55:40.707Z,986.3
2023-01-07T06:57:41.972Z,986.3
2023-01-07T07:01:46.471Z,986.3
2023-01-07T07:03:47.082Z,986.3
2023-01-07T07:05:48.554Z,986.3
2023-01-07T07:07:50.317Z,986.3
2023-01-07T07:09:51.400Z,986.2
2023-01-07T07:11:52.908Z,986.3
2023-01-07T07:13:54.540Z,986.2
2023-01-07T07:15:56.092Z,986.2
2023-01-07T07:17:57.723Z,986.2
2023-01-07T07:19:59.249Z,986.1
2023-01-07T07:22:02.738Z,986.2
2023-01-07T07:24:02.761Z,986.1
2023-01-07T07:26:04.420Z,986.1
2023-01-07T07:28:05.810Z,986
2023-01-07T07:30:06.864Z,986.1
2023-01-07T07:32:08.542Z,986
2023-01-07T07:34:10.178Z,986.1
2023-01-07T07:36:12.052Z,986.1
2023-01-07T07:38:13.912Z,986
2023-01-07T07:40:15.695Z,985.9
2023-01-07T07:42:16.964Z,985.9
2023-01-07T07:44:17.995Z,985.9
2023-01-07T07:46:19.747Z,986
2023-01-07T07:48:21.384Z,985.9
2023-01-07T07:50:22.786Z,985.9
2023-01-07T07:52:23.699Z,985.9
2023-01-07T07:54:25.396Z,985.8
2023-01-07T07:56:27.137Z,985.9
2023-01-07T07:58:28.864Z,985.8
2023-01-07T08:00:30.441Z,985.7
2023-01-07T08:02:31.773Z,985.7
2023-01-07T08:04:33.075Z,985.8
2023-01-07T08:06:34.784Z,985.8
2023-01-07T08:10:37.401Z,985.8
2023-01-07T08:12:39.088Z,985.7
2023-01-07T08:14:40.033Z,985.7
2023-01-07T08:16:41.223Z,985.7
2023-01-07T08:18:42.295Z,985.7
2023-01-07T08:20:43.692Z,985.7
2023-01-07T08:22:45.237Z,985.7
2023-01-07T08:24:46.302Z,985.6
2023-01-07T08:26:47.564Z,985.6
2023-01-07T08:28:49.371Z,985.6
2023-01-07T08:30:50.761Z,985.6
2023-01-07T08:32:52.438Z,985.6
2023-01-07T08:34:53.918Z,985.5
2023-01-07T08:36:54.995Z,985.5
2023-01-07T08:38:56.793Z,985.5
2023-01-07T08:40:58.041Z,985.5
2023-01-07T08:42:59.166Z,985.5
2023-01-07T08:45:00.982Z,985.5
2023-01-07T08:47:02.100Z,985.6
2023-01-07T08:49:03.309Z,985.5
2023-01-07T08:51:04.633Z,985.4
2023-01-07T08:53:05.783Z,985.4
2023-01-07T08:55:07.563Z,985.5
2023-01-07T08:57:09.417Z,985.4
2023-01-07T08:59:11.042Z,985.4
2023-01-07T09:03:13.195Z,985.4
2023-01-07T09:05:14.898Z,985.3
2023-01-07T09:09:18.132Z,985.3
2023-01-07T09:11:19.949Z,985.3
2023-01-07T09:13:21.402Z,985.2
2023-01-07T09:15:22.605Z,985.2
2023-01-07T09:17:24.300Z,985.2
2023-01-07T09:19:25.144Z,985.4
2023-01-07T09:21:26.326Z,985.2
2023-01-07T09:23:28.026Z,985.2
2023-01-07T09:25:29.915Z,985.3
2023-01-07T09:27:31.288Z,985.2
2023-01-07T09:29:32.884Z,985.2
2023-01-07T09:31:34.427Z,985.2
2023-01-07T09:33:36.054Z,985.2
2023-01-07T09:35:37.437Z,985.2
2023-01-07T09:37:38.954Z,985.2
2023-01-07T09:39:40.655Z,985.1
2023-01-07T09:41:41.997Z,985.2
2023-01-07T09:43:59.047Z,985.2
2023-01-07T09:45:45.472Z,985.1
2023-01-07T09:47:47.197Z,985
2023-01-07T09:51:49.972Z,985.2
2023-01-07T09:53:51.868Z,985
2023-01-07T09:56:10.236Z,985.1
2023-01-07T09:57:55.354Z,985
2023-01-07T09:59:57.291Z,985.1
2023-01-07T10:01:58.798Z,985
2023-01-07T10:04:00.103Z,985.1
2023-01-07T10:06:01.630Z,985
2023-01-07T10:08:29.650Z,985.1
2023-01-07T10:10:04.512Z,985
2023-01-07T10:12:06.131Z,985
2023-01-07T10:14:07.827Z,984.9
2023-01-07T10:16:09.300Z,985
2023-01-07T10:18:10.809Z,984.9
2023-01-07T10:20:12.668Z,984.9
2023-01-07T10:22:14.153Z,984.9
2023-01-07T10:24:15.191Z,984.8
2023-01-07T10:26:16.493Z,984.9
2023-01-07T10:28:18.016Z,984.8
2023-01-07T10:30:18.961Z,984.8
2023-01-07T10:32:20.066Z,984.8
2023-01-07T10:34:21.223Z,984.8
2023-01-07T10:36:22.206Z,984.8
2023-01-07T10:38:23.528Z,984.7
2023-01-07T10:40:24.911Z,984.7
2023-01-07T10:42:26.592Z,984.7
2023-01-07T10:44:28.151Z,984.7
2023-01-07T10:46:29.955Z,984.7
2023-01-07T10:50:32.683Z,984.6
2023-01-07T10:52:34.537Z,984.6
2023-01-07T10:54:36.405Z,984.5
2023-01-07T10:56:37.462Z,984.5
2023-01-07T10:58:38.739Z,984.5
2023-01-07T11:00:40.226Z,984.4
2023-01-07T11:02:41.887Z,984.5
2023-01-07T11:04:43.756Z,984.5
2023-01-07T11:06:44.754Z,984.4
2023-01-07T11:08:45.843Z,984.4
2023-01-07T11:10:47.332Z,984.4
2023-01-07T11:12:48.565Z,984.4
2023-01-07T11:14:50.033Z,984.4
2023-01-07T11:16:51.522Z,984.3
2023-01-07T11:18:52.838Z,984.3
2023-01-07T11:20:54.134Z,984.4
2023-01-07T11:22:55.154Z,984.3
2023-01-07T11:24:56.936Z,984.3
2023-01-07T11:27:07.224Z,984.2
2023-01-07T11:28:59.177Z,984.3
2023-01-07T11:31:00.805Z,984
2023-01-07T11:33:02.180Z,984.1
2023-01-07T11:35:03.745Z,984
2023-01-07T11:37:05.434Z,984
2023-01-07T11:39:06.621Z,983.9
2023-01-07T11:41:07.470Z,984
2023-01-07T11:43:08.918Z,983.9
2023-01-07T11:45:10.077Z,983.8
2023-01-07T11:47:11.866Z,983.9
2023-01-07T11:49:13.073Z,983.8
2023-01-07T11:51:14.287Z,983.8
2023-01-07T11:53:15.276Z,983.7
2023-01-07T11:55:16.597Z,983.6
2023-01-07T11:57:18.016Z,983.6
2023-01-07T11:59:19.679Z,983.6
2023-01-07T12:01:20.973Z,983.6
2023-01-07T12:03:22.164Z,983.5
2023-01-07T12:05:23.609Z,983.5
2023-01-07T12:07:24.601Z,983.5
2023-01-07T12:09:25.969Z,983.4
2023-01-07T12:11:27.530Z,983.4
2023-01-07T12:15:29.925Z,983.3
2023-01-07T12:17:31.447Z,983.2
2023-01-07T12:19:32.439Z,983.2
2023-01-07T12:21:34.055Z,983.1
2023-01-07T12:23:35.227Z,983.1
2023-01-07T12:25:36.503Z,982.9
2023-01-07T12:27:38.361Z,983
2023-01-07T12:29:39.797Z,983
2023-01-07T12:31:41.031Z,982.9
2023-01-07T12:33:42.541Z,982.9
2023-01-07T12:35:44.212Z,982.9
2023-01-07T12:37:46.008Z,982.8
2023-01-07T12:39:47.885Z,982.8
2023-01-07T12:41:49.105Z,982.8
2023-01-07T12:43:50.672Z,982.7
2023-01-07T12:45:51.733Z,982.6
2023-01-07T12:47:52.629Z,982.5
2023-01-07T12:49:54.202Z,982.5
2023-01-07T12:52:39.572Z,982.6
2023-01-07T12:54:40.474Z,982.6
2023-01-07T12:56:41.529Z,982.5
2023-01-07T12:58:42.896Z,982.5
2023-01-07T13:00:44.697Z,982.4
2023-01-07T13:02:45.762Z,982.4
2023-01-07T13:04:47.593Z,982.4
2023-01-07T13:06:49.073Z,982.4
2023-01-07T13:08:50.592Z,982.4
2023-01-07T13:10:51.814Z,982.4
2023-01-07T13:12:52.768Z,982.4
2023-01-07T13:14:54.124Z,982.4
2023-01-07T13:16:55.888Z,982.3
2023-01-07T13:18:57.154Z,982.3
2023-01-07T13:20:59.048Z,982.3
2023-01-07T13:23:00.854Z,982.3
2023-01-07T13:25:02.003Z,982.3
2023-01-07T13:27:03.009Z,982.3
2023-01-07T13:29:04.301Z,982.3
2023-01-07T13:31:05.483Z,982.3
2023-01-07T13:35:08.166Z,982.1
2023-01-07T13:37:09.908Z,982.2
2023-01-07T13:39:10.831Z,982.1
2023-01-07T13:41:12.291Z,982.2
2023-01-07T13:45:15.371Z,982.1
2023-01-07T13:47:17.421Z,982.1
2023-01-07T13:49:19.161Z,982
2023-01-07T13:51:20.120Z,982.1
2023-01-07T13:53:21.239Z,982.1
2023-01-07T13:55:22.510Z,982.1
2023-01-07T13:57:24.004Z,982
2023-01-07T13:59:25.260Z,982
2023-01-07T14:01:26.349Z,982.2
2023-01-07T14:03:27.520Z,982
2023-01-07T14:05:29.049Z,981.9
2023-01-07T14:07:30.531Z,981.9
2023-01-07T14:09:31.943Z,981.9
2023-01-07T14:11:33.173Z,982
2023-01-07T14:13:34.247Z,981.8
2023-01-07T14:15:35.754Z,981.9
2023-01-07T14:17:37.587Z,981.8
2023-01-07T14:19:38.739Z,981.8
2023-01-07T14:21:40.319Z,981.8
2023-01-07T14:23:42.045Z,982
2023-01-07T14:25:43.379Z,981.9
2023-01-07T14:27:44.282Z,981.8
2023-01-07T14:29:45.474Z,981.8
2023-01-07T14:31:46.659Z,981.9
2023-01-07T14:33:48.179Z,982
2023-01-07T14:35:49.116Z,981.9
2023-01-07T14:37:50.358Z,981.9
2023-01-07T14:39:51.942Z,981.9
2023-01-07T14:41:53.738Z,981.9
2023-01-07T14:43:55.094Z,982
2023-01-07T14:45:56.163Z,981.8
2023-01-07T14:49:59.017Z,982
2023-01-07T14:52:00.670Z,982
2023-01-07T14:54:02.538Z,982
2023-01-07T14:56:04.314Z,982
2023-01-07T14:58:05.992Z,982.1
2023-01-07T15:00:07.822Z,982
2023-01-07T15:02:09.241Z,981.9
2023-01-07T15:04:10.120Z,982
2023-01-07T15:06:11.329Z,982
2023-01-07T15:08:12.312Z,981.9
2023-01-07T15:10:13.819Z,981.9
2023-01-07T15:12:14.726Z,981.9
2023-01-07T15:14:16.316Z,981.9
2023-01-07T15:16:17.953Z,982
2023-01-07T15:18:19.555Z,981.9
2023-01-07T15:20:20.576Z,981.8
2023-01-07T15:22:22.340Z,981.9
2023-01-07T15:24:23.413Z,981.8
2023-01-07T15:26:24.647Z,981.9
2023-01-07T15:28:26.306Z,981.8
2023-01-07T15:30:27.531Z,981.8
2023-01-07T15:32:29.437Z,981.8
2023-01-07T15:34:31.148Z,981.8
2023-01-07T15:36:32.288Z,981.9
2023-01-07T15:38:33.730Z,981.8
2023-01-07T15:40:34.671Z,981.8
2023-01-07T15:42:36.219Z,981.8
2023-01-07T15:44:40.297Z,981.7
2023-01-07T15:46:39.106Z,981.8
2023-01-07T15:48:40.767Z,981.7
2023-01-07T15:50:42.686Z,981.7
2023-01-07T15:52:44.127Z,981.6
2023-01-07T15:54:45.773Z,981.6
2023-01-07T15:58:48.469Z,981.5
2023-01-07T16:00:50.204Z,981.6
2023-01-07T16:02:51.157Z,981.5
2023-01-07T16:04:53.000Z,981.5
2023-01-07T16:08:55.894Z,981.4
2023-01-07T16:10:57.730Z,981.4
2023-01-07T16:12:58.735Z,981.4
2023-01-07T16:15:00.046Z,981.3
2023-01-07T16:17:01.722Z,981.3
2023-01-07T16:19:02.978Z,981.4
2023-01-07T16:21:04.122Z,981.4
2023-01-07T16:23:05.601Z,981.4
2023-01-07T16:25:07.496Z,981.4
2023-01-07T16:27:08.565Z,981.4
2023-01-07T16:29:10.393Z,981.4
2023-01-07T16:31:11.594Z,981.4
2023-01-07T16:33:13.021Z,981.5
2023-01-07T16:35:14.204Z,981.4
2023-01-07T16:37:16.158Z,981.4
2023-01-07T16:39:17.222Z,981.5
2023-01-07T16:41:18.585Z,981.6
2023-01-07T16:43:19.807Z,981.6
2023-01-07T16:45:21.732Z,981.5
2023-01-07T16:47:22.984Z,981.5
2023-01-07T16:49:24.724Z,981.5
2023-01-07T16:51:25.723Z,981.6
2023-01-07T16:53:27.039Z,981.5
2023-01-07T16:57:29.859Z,981.4
2023-01-07T16:59:30.880Z,981.5
2023-01-07T17:01:32.610Z,981.4
2023-01-07T17:03:34.184Z,981.5
2023-01-07T17:05:35.216Z,981.4
2023-01-07T17:07:36.702Z,981.4
2023-01-07T17:09:38.058Z,981.4
2023-01-07T17:11:39.567Z,981.4
2023-01-07T17:13:40.833Z,981.3
2023-01-07T17:15:42.177Z,981.3
2023-01-07T17:17:44.142Z,981.3
2023-01-07T17:19:45.995Z,981.2
2023-01-07T17:21:47.509Z,981.3
2023-01-07T17:23:49.339Z,981.2
2023-01-07T17:25:51.146Z,981.2
2023-01-07T17:27:52.375Z,981.2
2023-01-07T17:29:53.436Z,981.3
2023-01-07T17:31:54.820Z,981.2
2023-01-07T17:33:56.342Z,981.1
2023-01-07T17:35:58.026Z,981.1
2023-01-07T17:37:59.201Z,981.1
2023-01-07T17:40:00.254Z,981
2023-01-07T17:42:01.920Z,981.1
2023-01-07T17:44:03.558Z,981
2023-01-07T17:46:05.603Z,981.1
2023-01-07T17:48:06.764Z,981
2023-01-07T17:50:07.949Z,980.9
2023-01-07T17:52:09.316Z,981
2023-01-07T17:54:10.497Z,980.9
2023-01-07T17:56:12.020Z,981
2023-01-07T17:58:13.409Z,981
2023-01-07T18:00:15.075Z,981
2023-01-07T18:02:17.045Z,980.9
2023-01-07T18:04:18.277Z,981
2023-01-07T18:06:19.430Z,980.9
2023-01-07T18:08:20.718Z,980.9
2023-01-07T18:10:22.468Z,980.9
2023-01-07T18:12:23.723Z,980.9
2023-01-07T18:14:25.536Z,981
2023-01-07T18:16:26.658Z,981
2023-01-07T18:18:27.688Z,981
2023-01-07T18:22:30.447Z,980.9
2023-01-07T18:24:31.520Z,981
2023-01-07T18:26:33.556Z,980.9
2023-01-07T18:28:34.841Z,981
2023-01-07T18:30:36.083Z,981
2023-01-07T18:32:37.743Z,981
2023-01-07T18:34:39.399Z,980.9
2023-01-07T18:36:40.625Z,980.9
2023-01-07T18:38:41.957Z,981
2023-01-07T18:40:43.666Z,980.9
2023-01-07T18:42:45.350Z,980.9
2023-01-07T18:44:46.845Z,980.9
2023-01-07T18:46:48.618Z,980.9
2023-01-07T18:48:49.604Z,980.8
2023-01-07T18:50:51.449Z,980.8
2023-01-07T18:52:53.204Z,980.9
2023-01-07T18:54:54.785Z,980.8
2023-01-07T18:56:56.245Z,980.8
2023-01-07T18:58:57.739Z,980.8
2023-01-07T19:00:59.398Z,980.8
2023-01-07T19:05:02.267Z,980.8
2023-01-07T19:07:03.782Z,980.7
2023-01-07T19:09:05.121Z,980.7
2023-01-07T19:11:07.082Z,980.7
2023-01-07T19:15:09.701Z,980.6
2023-01-07T19:17:11.275Z,980.7
2023-01-07T19:19:12.335Z,980.7
2023-01-07T19:21:14.313Z,980.6
2023-01-07T19:23:15.594Z,980.6
2023-01-07T19:25:17.165Z,980.5
2023-01-07T19:27:18.677Z,980.6
2023-01-07T19:29:20.209Z,980.5
2023-01-07T19:31:21.633Z,980.5
2023-01-07T19:33:23.076Z,980.6
2023-01-07T19:35:24.760Z,980.6
2023-01-07T19:38:19.316Z,980.6
2023-01-07T19:40:12.284Z,980.5
2023-01-07T19:42:13.264Z,980.5
2023-01-07T19:44:15.138Z,980.5
2023-01-07T19:46:16.521Z,980.4
2023-01-07T19:48:18.344Z,980.4
2023-01-07T19:50:20.169Z,980.3
2023-01-07T19:52:21.182Z,980.3
2023-01-07T19:54:22.285Z,980.3
2023-01-07T19:58:25.805Z,980.2
2023-01-07T20:00:26.992Z,980.3
2023-01-07T20:02:28.280Z,980.2
2023-01-07T20:04:29.738Z,980.2
2023-01-07T20:06:31.366Z,980.2
2023-01-07T20:08:33.204Z,980.2
2023-01-07T20:10:34.869Z,980.1
2023-01-07T20:12:36.876Z,980.1
2023-01-07T20:14:38.707Z,980.1
2023-01-07T20:16:39.851Z,980.1
2023-01-07T20:18:41.707Z,980.2
2023-01-07T20:20:43.421Z,980.2
2023-01-07T20:22:44.553Z,980.2
2023-01-07T20:24:45.921Z,980.1
2023-01-07T20:26:47.624Z,980.3
2023-01-07T20:28:49.364Z,980.1
2023-01-07T20:30:50.784Z,980.1
2023-01-07T20:32:52.727Z,980.1
2023-01-07T20:34:54.606Z,980.1
2023-01-07T20:36:56.335Z,980
2023-01-07T20:40:59.199Z,980.1
2023-01-07T20:43:00.450Z,980
2023-01-07T20:45:02.025Z,980
2023-01-07T20:47:03.887Z,980
2023-01-07T20:49:04.951Z,980.2
2023-01-07T20:51:06.171Z,980.2
2023-01-07T20:53:07.216Z,980.1
2023-01-07T20:55:09.007Z,980.2
2023-01-07T20:57:10.296Z,980.3
2023-01-07T20:59:11.977Z,980.1
2023-01-07T21:01:13.265Z,980.1
2023-01-07T21:03:15.228Z,979.9
2023-01-07T21:05:16.211Z,979.9
2023-01-07T21:07:18.034Z,979.8
2023-01-07T21:09:18.994Z,979.9
2023-01-07T21:11:20.503Z,979.9
2023-01-07T21:13:22.072Z,979.8
2023-01-07T21:15:23.367Z,980
2023-01-07T21:17:25.326Z,979.9
2023-01-07T21:19:26.794Z,979.9
2023-01-07T21:21:27.978Z,980
2023-01-07T21:23:29.482Z,980
2023-01-07T21:25:30.992Z,980
2023-01-07T21:27:32.189Z,979.9
2023-01-07T21:29:33.761Z,980
2023-01-07T21:31:35.000Z,979.9
2023-01-07T21:33:36.817Z,979.9
2023-01-07T21:35:38.146Z,979.8
2023-01-07T21:39:41.275Z,979.8
2023-01-07T21:41:42.287Z,979.7
2023-01-07T21:43:44.309Z,979.8
2023-01-07T21:45:45.852Z,979.9
2023-01-07T21:47:47.503Z,979.9
2023-01-07T21:49:49.158Z,979.9
2023-01-07T21:51:50.766Z,979.9
2023-01-07T21:53:52.351Z,979.8
2023-01-07T21:55:53.881Z,979.8
2023-01-07T21:57:55.162Z,979.7
2023-01-07T21:59:56.996Z,979.7
2023-01-07T22:01:58.594Z,979.7
2023-01-07T22:03:59.931Z,979.7
2023-01-07T22:06:01.416Z,979.7
2023-01-07T22:08:02.967Z,979.6
2023-01-07T22:10:04.958Z,979.6
2023-01-07T22:12:06.206Z,979.5
2023-01-07T22:14:07.742Z,979.5
2023-01-07T22:16:09.283Z,979.5
2023-01-07T22:18:10.457Z,979.6
2023-01-07T22:22:13.928Z,979.7
2023-01-07T22:24:15.693Z,979.7
2023-01-07T22:26:17.515Z,979.6
2023-01-07T22:28:19.096Z,979.6
2023-01-07T22:30:20.197Z,979.6
2023-01-07T22:32:21.495Z,979.6
2023-01-07T22:34:22.599Z,979.6
2023-01-07T22:36:24.297Z,979.6
2023-01-07T22:38:26.169Z,979.5
2023-01-07T22:40:27.984Z,979.6
2023-01-07T22:42:29.737Z,979.5
2023-01-07T22:44:30.822Z,979.6
2023-01-07T22:48:34.557Z,979.6
2023-01-07T22:50:36.112Z,979.5
2023-01-07T22:52:37.827Z,979.5
2023-01-07T22:54:39.334Z,979.7
2023-01-07T22:56:40.900Z,979.6
2023-01-07T22:58:42.390Z,979.6
2023-01-07T23:00:43.413Z,979.6
2023-01-07T23:02:45.098Z,979.6
2023-01-07T23:04:46.493Z,979.6
2023-01-07T23:06:47.721Z,979.6
2023-01-07T23:08:49.372Z,979.6
2023-01-07T23:10:51.237Z,979.5
2023-01-07T23:12:53.082Z,979.6
2023-01-07T23:14:54.729Z,979.5
2023-01-07T23:16:56.699Z,979.5
2023-01-07T23:18:58.095Z,979.5
2023-01-07T23:20:59.704Z,979.3
2023-01-07T23:23:01.016Z,979.4
2023-01-07T23:25:02.854Z,979.3
2023-01-07T23:27:04.595Z,979.2
2023-01-07T23:29:06.511Z,979.2
2023-01-07T23:31:08.485Z,979.1
2023-01-07T23:33:09.644Z,979.1
2023-01-07T23:37:12.929Z,979
2023-01-07T23:39:14.028Z,979
2023-01-07T23:41:15.803Z,979
2023-01-07T23:43:17.535Z,979
2023-01-07T23:45:18.713Z,979
2023-01-07T23:47:19.924Z,979
2023-01-07T23:49:21.204Z,979
2023-01-07T23:51:22.949Z,978.9
2023-01-07T23:53:24.492Z,978.8
2023-01-07T23:55:25.934Z,978.8
2023-01-07T23:57:27.386Z,978.8
2023-01-07T23:59:28.762Z,978.7
